createdAt,value
2022-07-28T00:00:39.808Z,99133.38
2022-07-28T00:03:46.215Z,99140.81
2022-07-28T00:06:49.536Z,99137.91
2022-07-28T00:09:56.911Z,99138.63
2022-07-28T00:13:03.939Z,99142.38
2022-07-28T00:16:10.797Z,99157.19
2022-07-28T00:19:16.155Z,99154.22
2022-07-28T00:22:19.663Z,99161.72
2022-07-28T00:25:23.375Z,99160.34
2022-07-28T00:28:26.680Z,99168.84
2022-07-28T00:31:30.104Z,99165.66
2022-07-28T00:34:35.222Z,99168.94
2022-07-28T00:37:40.373Z,99178.66
2022-07-28T00:41:01.457Z,99168.16
2022-07-28T00:44:07.576Z,99174.06
2022-07-28T00:47:11.995Z,99171.75
2022-07-28T00:50:18.505Z,99172.88
2022-07-28T00:53:22.041Z,99179.28
2022-07-28T00:56:25.587Z,99186.00
2022-07-28T00:59:29.033Z,99184.13
2022-07-28T01:02:32.721Z,99175.91
2022-07-28T01:05:47.237Z,99176.16
2022-07-28T01:09:02.699Z,99185.81
2022-07-28T01:12:13.130Z,99176.97
2022-07-28T01:15:24.483Z,99179.09
2022-07-28T01:18:34.008Z,99179.38
2022-07-28T01:21:42.802Z,99188.22
2022-07-28T01:24:56.041Z,99194.91
2022-07-28T01:28:17.364Z,99200.22
2022-07-28T01:31:26.980Z,99201.63
2022-07-28T01:34:34.468Z,99202.75
2022-07-28T01:37:44.713Z,99202.97
2022-07-28T01:40:50.216Z,99199.22
2022-07-28T01:43:58.766Z,99198.06
2022-07-28T01:47:07.611Z,99197.09
2022-07-28T01:50:12.632Z,99199.19
2022-07-28T01:53:18.220Z,99204.53
2022-07-28T01:56:24.045Z,99203.50
2022-07-28T01:59:29.687Z,99198.13
2022-07-28T02:02:39.246Z,99209.75
2022-07-28T02:05:43.725Z,99199.25
2022-07-28T02:08:50.215Z,99214.75
2022-07-28T02:11:55.213Z,99203.56
2022-07-28T02:14:59.628Z,99199.81
2022-07-28T02:18:05.794Z,99205.13
2022-07-28T02:21:10.941Z,99203.50
2022-07-28T02:24:15.566Z,99205.16
2022-07-28T02:27:23.808Z,99200.34
2022-07-28T02:30:35.157Z,99200.88
2022-07-28T02:34:00.313Z,99199.53
2022-07-28T02:37:06.924Z,99202.19
2022-07-28T02:40:16.248Z,99204.59
2022-07-28T02:43:25.668Z,99206.22
2022-07-28T02:46:52.919Z,99203.19
2022-07-28T02:50:01.216Z,99206.91
2022-07-28T02:53:15.476Z,99212.06
2022-07-28T02:56:19.816Z,99212.41
2022-07-28T02:59:24.677Z,99211.56
2022-07-28T03:02:30.929Z,99215.06
2022-07-28T03:05:36.550Z,99218.84
2022-07-28T03:08:40.151Z,99215.91
2022-07-28T03:11:53.688Z,99206.78
2022-07-28T03:14:57.384Z,99203.56
2022-07-28T03:18:00.825Z,99206.78
2022-07-28T03:21:05.806Z,99208.38
2022-07-28T03:24:11.849Z,99207.28
2022-07-28T03:27:22.217Z,99204.84
2022-07-28T03:30:30.559Z,99204.91
2022-07-28T03:33:34.853Z,99201.69
2022-07-28T03:36:44.004Z,99206.72
2022-07-28T03:39:49.509Z,99218.06
2022-07-28T03:42:54.824Z,99209.97
2022-07-28T03:45:58.198Z,99223.66
2022-07-28T03:49:01.754Z,99219.66
2022-07-28T03:52:06.875Z,99219.34
2022-07-28T03:55:11.198Z,99222.22
2022-07-28T03:58:14.570Z,99219.50
2022-07-28T04:01:18.979Z,99218.06
2022-07-28T04:04:22.353Z,99231.16
2022-07-28T04:07:27.186Z,99231.38
2022-07-28T04:10:30.710Z,99239.81
2022-07-28T04:13:36.718Z,99243.63
2022-07-28T04:16:40.148Z,99255.25
2022-07-28T04:19:43.552Z,99253.63
2022-07-28T04:22:49.168Z,99261.16
2022-07-28T04:25:52.557Z,99263.06
2022-07-28T04:28:55.998Z,99271.88
2022-07-28T04:31:59.360Z,99279.88
2022-07-28T04:35:02.762Z,99280.44
2022-07-28T04:38:07.898Z,99274.41
2022-07-28T04:41:11.262Z,99291.00
2022-07-28T04:44:15.185Z,99290.94
2022-07-28T04:47:18.832Z,99297.47
2022-07-28T04:50:22.442Z,99296.13
2022-07-28T04:53:35.370Z,99301.59
2022-07-28T04:56:38.739Z,99304.25
2022-07-28T04:59:42.065Z,99304.31
2022-07-28T05:02:48.093Z,99303.34
2022-07-28T05:05:54.443Z,99313.91
2022-07-28T05:08:59.737Z,99299.75
2022-07-28T05:12:03.068Z,99299.63
2022-07-28T05:15:07.163Z,99304.78
2022-07-28T05:18:10.431Z,99305.03
2022-07-28T05:21:13.750Z,99304.31
2022-07-28T05:24:20.017Z,99303.38
2022-07-28T05:27:23.369Z,99305.16
2022-07-28T05:30:26.898Z,99309.19
2022-07-28T05:33:31.817Z,99305.91
2022-07-28T05:36:36.676Z,99306.03
2022-07-28T05:39:41.563Z,99305.00
2022-07-28T05:42:47.409Z,99320.25
2022-07-28T05:45:50.979Z,99305.56
2022-07-28T05:48:54.461Z,99308.19
2022-07-28T05:51:57.856Z,99302.31
2022-07-28T05:55:02.820Z,99303.47
2022-07-28T05:58:06.300Z,99300.25
2022-07-28T06:01:09.858Z,99303.53
2022-07-28T06:04:29.275Z,99305.97
2022-07-28T06:07:42.873Z,99299.31
2022-07-28T06:11:05.665Z,99299.91
2022-07-28T06:14:09.104Z,99297.00
2022-07-28T06:17:14.967Z,99304.75
2022-07-28T06:20:18.317Z,99304.81
2022-07-28T06:23:23.616Z,99302.34
2022-07-28T06:26:28.428Z,99301.66
2022-07-28T06:29:31.933Z,99307.72
2022-07-28T06:32:35.174Z,99307.03
2022-07-28T06:35:44.952Z,99304.53
2022-07-28T06:38:54.480Z,99292.13
2022-07-28T06:41:59.223Z,99309.53
2022-07-28T06:45:02.544Z,99301.94
2022-07-28T06:48:08.083Z,99305.13
2022-07-28T06:51:11.549Z,99302.66
2022-07-28T06:54:15.139Z,99298.34
2022-07-28T06:57:23.051Z,99292.94
2022-07-28T07:00:36.647Z,99297.41
2022-07-28T07:03:40.071Z,99297.56
2022-07-28T07:06:43.666Z,99296.44
2022-07-28T07:09:47.291Z,99295.72
2022-07-28T07:12:52.001Z,99295.22
2022-07-28T07:15:55.440Z,99294.00
2022-07-28T07:18:58.862Z,99285.34
2022-07-28T07:22:02.200Z,99292.47
2022-07-28T07:25:10.490Z,99283.22
2022-07-28T07:28:15.176Z,99284.63
2022-07-28T07:31:18.539Z,99287.22
2022-07-28T07:34:21.955Z,99285.56
2022-07-28T07:37:25.688Z,99287.66
2022-07-28T07:40:29.060Z,99286.88
2022-07-28T07:43:33.790Z,99284.16
2022-07-28T07:46:38.574Z,99292.81
2022-07-28T07:49:46.079Z,99290.09
2022-07-28T07:52:50.812Z,99289.31
2022-07-28T07:55:54.316Z,99290.56
2022-07-28T07:58:59.269Z,99289.00
2022-07-28T08:02:02.785Z,99286.88
2022-07-28T08:05:07.013Z,99295.53
2022-07-28T08:08:11.639Z,99281.78
2022-07-28T08:11:14.973Z,99284.16
2022-07-28T08:14:19.679Z,99289.72
2022-07-28T08:17:26.159Z,99284.28
2022-07-28T08:20:30.026Z,99282.72
2022-07-28T08:23:33.337Z,99289.78
2022-07-28T08:26:36.694Z,99293.00
2022-07-28T08:29:41.417Z,99292.50
2022-07-28T08:32:44.763Z,99288.00
2022-07-28T08:36:01.332Z,99290.06
2022-07-28T08:39:05.487Z,99289.00
2022-07-28T08:42:13.500Z,99291.88
2022-07-28T08:45:20.140Z,99292.38
2022-07-28T08:48:24.212Z,99292.56
2022-07-28T08:51:29.187Z,99297.81
2022-07-28T08:54:33.831Z,99294.91
2022-07-28T08:57:39.523Z,99296.31
2022-07-28T09:00:44.333Z,99297.00
2022-07-28T09:03:48.103Z,99291.41
2022-07-28T09:06:51.594Z,99291.41
2022-07-28T09:09:57.446Z,99291.00
2022-07-28T09:13:06.231Z,99290.56
2022-07-28T09:16:11.426Z,99292.47
2022-07-28T09:19:14.781Z,99286.56
2022-07-28T09:22:18.150Z,99291.94
2022-07-28T09:25:22.321Z,99275.78
2022-07-28T09:28:26.111Z,99283.75
2022-07-28T09:31:31.692Z,99281.13
2022-07-28T09:34:41.876Z,99279.34
2022-07-28T09:37:45.323Z,99278.88
2022-07-28T09:40:59.708Z,99283.84
2022-07-28T09:44:03.035Z,99277.34
2022-07-28T09:47:23.277Z,99284.22
2022-07-28T09:50:30.460Z,99280.38
2022-07-28T09:53:33.723Z,99277.78
2022-07-28T09:56:37.793Z,99274.06
2022-07-28T09:59:43.188Z,99271.88
2022-07-28T10:02:52.253Z,99266.88
2022-07-28T10:05:56.922Z,99274.13
2022-07-28T10:09:01.900Z,99269.41
2022-07-28T10:12:19.272Z,99268.41
2022-07-28T10:15:36.934Z,99262.31
2022-07-28T10:18:41.948Z,99260.06
2022-07-28T10:21:45.929Z,99257.44
2022-07-28T10:24:52.961Z,99248.53
2022-07-28T10:27:59.372Z,99254.44
2022-07-28T10:31:04.176Z,99239.84
2022-07-28T10:34:16.021Z,99247.91
2022-07-28T10:37:22.740Z,99238.84
2022-07-28T10:40:29.894Z,99218.72
2022-07-28T10:43:33.656Z,99227.22
2022-07-28T10:46:38.913Z,99225.50
2022-07-28T10:49:43.736Z,99218.28
2022-07-28T10:52:49.901Z,99213.56
2022-07-28T10:56:01.951Z,99221.03
2022-07-28T10:59:13.433Z,99219.31
2022-07-28T11:02:52.318Z,99218.31
2022-07-28T11:05:57.229Z,99216.66
2022-07-28T11:09:24.247Z,99219.03
2022-07-28T11:12:49.597Z,99213.34
2022-07-28T11:15:54.066Z,99217.81
2022-07-28T11:19:36.839Z,99208.91
2022-07-28T11:22:34.167Z,99214.38
2022-07-28T11:25:37.861Z,99196.56
2022-07-28T11:29:20.297Z,99206.00
2022-07-28T11:32:23.698Z,99213.25
2022-07-28T11:35:31.871Z,99202.63
2022-07-28T11:38:36.603Z,99192.06
2022-07-28T11:41:40.008Z,99198.44
2022-07-28T11:44:43.944Z,99190.44
2022-07-28T11:47:47.331Z,99188.75
2022-07-28T11:51:11.744Z,99186.81
2022-07-28T11:54:18.914Z,99187.53
2022-07-28T11:57:26.020Z,99195.16
2022-07-28T12:00:29.344Z,99191.31
2022-07-28T12:03:48.907Z,99188.22
2022-07-28T12:06:53.840Z,99200.75
2022-07-28T12:09:59.188Z,99197.03
2022-07-28T12:13:04.819Z,99189.88
2022-07-28T12:16:08.228Z,99183.81
2022-07-28T12:19:12.452Z,99188.47
2022-07-28T12:22:16.022Z,99197.66
2022-07-28T12:25:20.810Z,99199.06
2022-07-28T12:28:29.672Z,99192.47
2022-07-28T12:31:34.144Z,99190.16
2022-07-28T12:34:38.176Z,99194.09
2022-07-28T12:37:43.183Z,99199.50
2022-07-28T12:40:48.227Z,99199.00
2022-07-28T12:43:52.526Z,99184.72
2022-07-28T12:46:55.879Z,99180.63
2022-07-28T12:50:14.540Z,99192.22
2022-07-28T12:53:22.003Z,99203.91
2022-07-28T12:56:26.816Z,99209.31
2022-07-28T12:59:33.961Z,99215.25
2022-07-28T13:02:38.154Z,99208.22
2022-07-28T13:05:59.025Z,99205.25
2022-07-28T13:09:02.509Z,99204.06
2022-07-28T13:12:19.337Z,99206.91
2022-07-28T13:15:22.691Z,99207.53
2022-07-28T13:18:40.424Z,99212.97
2022-07-28T13:21:58.486Z,99206.97
2022-07-28T13:25:03.856Z,99222.06
2022-07-28T13:28:23.824Z,99222.00
2022-07-28T13:31:27.336Z,99216.72
2022-07-28T13:34:30.569Z,99222.19
2022-07-28T13:37:33.976Z,99222.16
2022-07-28T13:40:37.355Z,99213.09
2022-07-28T13:43:42.136Z,99225.16
2022-07-28T13:46:51.734Z,99219.28
2022-07-28T13:49:55.238Z,99216.63
2022-07-28T13:52:59.346Z,99216.69
2022-07-28T13:56:02.677Z,99220.00
2022-07-28T13:59:10.244Z,99223.72
2022-07-28T14:02:16.915Z,99224.69
2022-07-28T14:05:21.047Z,99228.97
2022-07-28T14:08:25.393Z,99245.94
2022-07-28T14:11:29.027Z,99242.13
2022-07-28T14:14:39.436Z,99234.59
2022-07-28T14:17:51.520Z,99227.19
2022-07-28T14:20:55.021Z,99226.69
2022-07-28T14:23:58.411Z,99224.16
2022-07-28T14:27:01.775Z,99207.25
2022-07-28T14:30:08.199Z,99206.25
2022-07-28T14:33:11.539Z,99201.53
2022-07-28T14:36:14.897Z,99195.13
2022-07-28T14:39:18.281Z,99195.22
2022-07-28T14:42:21.598Z,99194.88
2022-07-28T14:45:26.438Z,99192.00
2022-07-28T14:48:30.995Z,99177.06
2022-07-28T14:51:34.340Z,99179.47
2022-07-28T14:54:38.428Z,99184.22
2022-07-28T14:57:51.812Z,99166.97
2022-07-28T15:00:58.880Z,99170.91
2022-07-28T15:04:02.249Z,99167.66
2022-07-28T15:07:05.637Z,99166.72
2022-07-28T15:10:09.801Z,99158.72
2022-07-28T15:13:13.115Z,99163.81
2022-07-28T15:16:17.909Z,99174.69
2022-07-28T15:19:21.969Z,99187.63
2022-07-28T15:22:26.567Z,99177.16
2022-07-28T15:25:30.136Z,99192.06
2022-07-28T15:28:33.490Z,99195.19
2022-07-28T15:31:38.290Z,99187.13
2022-07-28T15:34:43.028Z,99186.78
2022-07-28T15:37:46.344Z,99195.53
2022-07-28T15:40:50.556Z,99185.53
2022-07-28T15:43:57.572Z,99188.25
2022-07-28T15:47:02.326Z,99190.50
2022-07-28T15:50:07.742Z,99202.78
2022-07-28T15:53:11.054Z,99206.38
2022-07-28T15:56:14.607Z,99208.84
2022-07-28T15:59:18.019Z,99199.00
2022-07-28T16:02:22.901Z,99198.63
2022-07-28T16:05:26.410Z,99199.28
2022-07-28T16:08:29.700Z,99209.31
2022-07-28T16:11:33.007Z,99202.63
2022-07-28T16:14:36.870Z,99204.38
2022-07-28T16:17:42.257Z,99208.53
2022-07-28T16:20:45.693Z,99212.53
2022-07-28T16:23:49.166Z,99218.56
2022-07-28T16:26:52.796Z,99215.34
2022-07-28T16:29:56.128Z,99218.47
2022-07-28T16:33:01.491Z,99225.78
2022-07-28T16:36:05.473Z,99235.66
2022-07-28T16:39:09.579Z,99247.59
2022-07-28T16:42:12.957Z,99247.59
2022-07-28T16:45:17.117Z,99262.16
2022-07-28T16:48:21.948Z,99269.38
2022-07-28T16:51:25.363Z,99279.63
2022-07-28T16:54:28.730Z,99284.13
2022-07-28T16:57:32.058Z,99297.84
2022-07-28T17:00:35.635Z,99302.69
2022-07-28T17:03:40.908Z,99301.59
2022-07-28T17:06:44.428Z,99316.53
2022-07-28T17:09:47.705Z,99312.13
2022-07-28T17:12:50.995Z,99306.31
2022-07-28T17:15:54.678Z,99310.38
2022-07-28T17:18:59.612Z,99312.47
2022-07-28T17:22:06.280Z,99323.16
2022-07-28T17:25:28.486Z,99326.44
2022-07-28T17:28:33.766Z,99322.28
2022-07-28T17:31:37.592Z,99337.31
2022-07-28T17:34:42.493Z,99338.63
2022-07-28T17:37:45.827Z,99340.34
2022-07-28T17:40:51.268Z,99346.44
2022-07-28T17:43:54.629Z,99356.63
2022-07-28T17:46:58.007Z,99364.13
2022-07-28T17:50:02.828Z,99378.44
2022-07-28T17:53:06.604Z,99389.94
2022-07-28T17:56:10.028Z,99388.44
2022-07-28T17:59:13.717Z,99397.72
2022-07-28T18:02:17.339Z,99406.13
2022-07-28T18:05:22.161Z,99404.69
2022-07-28T18:08:26.386Z,99399.47
2022-07-28T18:11:30.119Z,99407.22
2022-07-28T18:14:33.393Z,99422.41
2022-07-28T18:17:36.699Z,99423.72
2022-07-28T18:21:00.336Z,99427.41
2022-07-28T18:24:04.046Z,99428.72
2022-07-28T18:27:07.461Z,99435.97
2022-07-28T18:30:12.576Z,99442.13
2022-07-28T18:33:17.716Z,99446.31
2022-07-28T18:36:22.578Z,99449.88
2022-07-28T18:39:25.949Z,99463.63
2022-07-28T18:42:32.090Z,99464.81
2022-07-28T18:45:35.769Z,99462.56
2022-07-28T18:48:39.189Z,99471.13
2022-07-28T18:51:45.746Z,99488.88
2022-07-28T18:54:49.238Z,99490.13
2022-07-28T18:57:52.562Z,99498.22
2022-07-28T19:00:55.868Z,99504.50
2022-07-28T19:03:59.215Z,99507.22
2022-07-28T19:07:04.016Z,99511.59
2022-07-28T19:10:10.848Z,99516.53
2022-07-28T19:13:14.182Z,99512.53
2022-07-28T19:16:19.084Z,99513.56
2022-07-28T19:19:22.521Z,99524.94
2022-07-28T19:22:27.291Z,99525.97
2022-07-28T19:25:30.798Z,99528.69
2022-07-28T19:28:34.427Z,99526.75
2022-07-28T19:31:37.873Z,99519.72
2022-07-28T19:34:43.050Z,99517.81
2022-07-28T19:37:47.850Z,99519.28
2022-07-28T19:40:51.253Z,99507.16
2022-07-28T19:43:54.594Z,99517.41
2022-07-28T19:46:58.497Z,99519.28
2022-07-28T19:50:02.931Z,99519.53
2022-07-28T19:53:07.705Z,99514.72
2022-07-28T19:56:18.613Z,99519.00
2022-07-28T19:59:23.070Z,99516.59
2022-07-28T20:02:26.466Z,99514.97
2022-07-28T20:05:29.747Z,99514.16
2022-07-28T20:08:34.635Z,99523.59
2022-07-28T20:11:39.094Z,99520.09
2022-07-28T20:14:42.475Z,99529.22
2022-07-28T20:17:45.892Z,99541.59
2022-07-28T20:20:49.839Z,99540.50
2022-07-28T20:23:57.120Z,99549.03
2022-07-28T20:27:01.133Z,99546.31
2022-07-28T20:30:04.912Z,99552.81
2022-07-28T20:33:08.340Z,99544.75
2022-07-28T20:36:11.756Z,99552.81
2022-07-28T20:39:43.239Z,99549.25
2022-07-28T20:42:39.903Z,99552.47
2022-07-28T20:45:43.236Z,99555.44
2022-07-28T20:48:46.613Z,99573.19
2022-07-28T20:51:51.221Z,99571.63
2022-07-28T20:54:56.433Z,99571.53
2022-07-28T20:57:59.768Z,99576.94
2022-07-28T21:01:03.798Z,99582.09
2022-07-28T21:04:07.313Z,99582.31
2022-07-28T21:07:14.720Z,99583.72
2022-07-28T21:10:19.333Z,99582.72
2022-07-28T21:13:22.921Z,99583.78
2022-07-28T21:16:26.260Z,99582.56
2022-07-28T21:19:29.501Z,99580.47
2022-07-28T21:22:32.778Z,99589.06
2022-07-28T21:25:37.483Z,99590.50
2022-07-28T21:28:58.424Z,99592.16
2022-07-28T21:32:05.425Z,99606.91
2022-07-28T21:35:14.021Z,99597.59
2022-07-28T21:38:17.562Z,99594.31
2022-07-28T21:41:25.357Z,99586.47
2022-07-28T21:44:28.640Z,99581.94
2022-07-28T21:47:34.141Z,99575.75
2022-07-28T21:50:38.184Z,99582.28
2022-07-28T21:53:42.388Z,99585.44
2022-07-28T21:56:47.877Z,99577.00
2022-07-28T21:59:51.074Z,99575.31
2022-07-28T22:02:54.430Z,99581.50
2022-07-28T22:05:57.638Z,99577.84
2022-07-28T22:09:00.795Z,99589.00
2022-07-28T22:12:05.818Z,99605.34
2022-07-28T22:15:09.432Z,99603.03
2022-07-28T22:18:16.669Z,99604.13
2022-07-28T22:21:20.190Z,99601.47
2022-07-28T22:24:23.706Z,99598.78
2022-07-28T22:27:28.432Z,99603.47
2022-07-28T22:30:31.763Z,99594.56
2022-07-28T22:33:34.963Z,99602.13
2022-07-28T22:36:38.664Z,99603.03
2022-07-28T22:39:42.112Z,99586.53
2022-07-28T22:42:48.398Z,99592.31
2022-07-28T22:45:51.921Z,99601.09
2022-07-28T22:48:55.307Z,99606.53
2022-07-28T22:51:58.630Z,99608.00
2022-07-28T22:55:01.913Z,99610.44
2022-07-28T22:58:06.626Z,99606.78
2022-07-28T23:01:09.926Z,99610.38
2022-07-28T23:04:14.806Z,99604.53
2022-07-28T23:07:19.117Z,99607.25
2022-07-28T23:10:22.870Z,99606.34
2022-07-28T23:13:27.599Z,99610.31
2022-07-28T23:16:31.010Z,99610.44
2022-07-28T23:19:34.469Z,99612.63
2022-07-28T23:22:38.065Z,99612.56
2022-07-28T23:25:43.045Z,99610.72
2022-07-28T23:28:47.770Z,99609.63
2022-07-28T23:31:51.342Z,99602.56
2022-07-28T23:34:54.595Z,99603.19
2022-07-28T23:37:57.901Z,99599.47
2022-07-28T23:41:01.150Z,99591.19
2022-07-28T23:44:06.685Z,99591.91
2022-07-28T23:47:11.156Z,99603.06
2022-07-28T23:50:14.445Z,99608.56
2022-07-28T23:53:17.779Z,99596.25
2022-07-28T23:56:21.047Z,99595.91
2022-07-28T23:59:26.115Z,99582.78
